Time;durP1;ratioP1;P1;durP2;ratioP2;P2;SDS_P1;SDS_P2;PMS_P1;PMS_P2;Temp;Humidity;BMP_temperature;BMP_pressure;BME280_temperature;BME280_humidity;BME280_pressure;Samples;Min_cycle;Max_cycle;Signal;HPM_P1;HPM_P2
2024/02/28 00:04:31;;;;;;;;;;;4.30;99.90;;;;;;6710700;88;20062;-78
2024/02/28 00:14:31;;;;;;;;;;;4.30;99.90;;;;;;6723691;88;20537;-77
2024/02/28 00:24:32;;;;;;;;;;;4.30;99.90;;;;;;6733307;88;20128;-79
2024/02/28 00:34:32;;;;;;;;;;;4.30;99.90;;;;;;6734251;88;20084;-78
2024/02/28 00:44:32;;;;;;;;;;;4.30;99.90;;;;;;6723156;88;20058;-78
2024/02/28 00:54:33;;;;;;;;;;;4.40;99.90;;;;;;6723096;88;20058;-77
2024/02/28 01:04:33;;;;;;;;;;;4.40;99.90;;;;;;6722934;88;20055;-78
2024/02/28 01:14:34;;;;;;;;;;;4.40;99.90;;;;;;6721632;88;20058;-78
2024/02/28 01:24:34;;;;;;;;;;;4.40;99.90;;;;;;6720614;88;20132;-79
2024/02/28 01:34:35;;;;;;;;;;;4.40;99.90;;;;;;6721581;88;20099;-78
2024/02/28 01:44:43;;;;;;;;;;;4.30;99.90;;;;;;6720490;88;20077;-78
2024/02/28 02:04:54;;;;;;;;;;;4.30;99.90;;;;;;6711076;88;20091;-79
2024/02/28 02:14:54;;;;;;;;;;;4.40;99.90;;;;;;6711911;88;20052;-80
2024/02/28 02:24:55;;;;;;;;;;;4.40;99.90;;;;;;6717425;88;20055;-79
2024/02/28 02:34:55;;;;;;;;;;;4.50;99.90;;;;;;6712304;88;20085;-80
2024/02/28 02:44:56;;;;;;;;;;;4.40;99.90;;;;;;6711322;88;20054;-79
2024/02/28 02:54:56;;;;;;;;;;;4.30;99.90;;;;;;6711869;88;20071;-80
2024/02/28 03:04:56;;;;;;;;;;;4.30;99.90;;;;;;6712305;88;20134;-79
2024/02/28 03:14:57;;;;;;;;;;;4.20;99.90;;;;;;6712221;88;20059;-80
2024/02/28 03:24:58;;;;;;;;;;;4.20;99.90;;;;;;6707847;88;20155;-79
2024/02/28 03:34:58;;;;;;;;;;;4.20;99.90;;;;;;6712389;88;20217;-79
2024/02/28 03:44:58;;;;;;;;;;;4.20;99.90;;;;;;6719540;88;20191;-80
2024/02/28 03:54:59;;;;;;;;;;;4.20;99.90;;;;;;6707627;88;20050;-79
2024/02/28 04:04:59;;;;;;;;;;;4.10;99.90;;;;;;6728518;88;20054;-79
2024/02/28 04:15:00;;;;;;;;;;;4.00;99.90;;;;;;6728882;88;20063;-81
2024/02/28 04:25:00;;;;;;;;;;;4.10;99.90;;;;;;6728580;88;20112;-80
2024/02/28 04:35:01;;;;;;;;;;;4.20;99.90;;;;;;6705933;88;20059;-80
2024/02/28 04:45:02;;;;;;;;;;;4.10;99.90;;;;;;6694984;88;20552;-80
2024/02/28 04:55:03;;;;;;;;;;;4.10;99.90;;;;;;6695442;88;20111;-80
2024/02/28 05:05:03;;;;;;;;;;;4.10;99.90;;;;;;6694540;88;20095;-80
2024/02/28 05:15:06;;;;;;;;;;;4.10;99.90;;;;;;6699215;88;20137;-80
2024/02/28 05:25:06;;;;;;;;;;;4.00;99.90;;;;;;6706384;88;20027;-79
2024/02/28 05:35:07;;;;;;;;;;;4.00;99.90;;;;;;6698554;89;20059;-79
2024/02/28 05:45:08;;;;;;;;;;;4.00;99.90;;;;;;6708136;88;20066;-78
2024/02/28 05:55:08;;;;;;;;;;;3.90;99.90;;;;;;6702632;88;20074;-78
2024/02/28 06:05:09;;;;;;;;;;;3.90;99.90;;;;;;6692998;88;20137;-78
2024/02/28 06:15:09;;;;;;;;;;;3.90;99.90;;;;;;6693202;88;20079;-78
2024/02/28 06:25:18;;;;;;;;;;;3.90;99.90;;;;;;6698134;88;20079;-78
2024/02/28 06:35:18;;;;;;;;;;;3.90;99.90;;;;;;6697616;88;20087;-78
2024/02/28 06:45:19;;;;;;;;;;;4.10;99.90;;;;;;6708015;88;20051;-78
2024/02/28 06:55:19;;;;;;;;;;;4.00;99.90;;;;;;6707065;88;20054;-77
2024/02/28 07:05:20;;;;;;;;;;;4.10;99.90;;;;;;6710383;88;20130;-76
2024/02/28 07:15:21;;;;;;;;;;;4.00;99.90;;;;;;6707298;88;20136;-78
2024/02/28 07:25:21;;;;;;;;;;;4.00;99.90;;;;;;6704359;88;20063;-78
2024/02/28 07:35:23;;;;;;;;;;;4.00;99.90;;;;;;6705671;88;20064;-78
2024/02/28 07:45:24;;;;;;;;;;;4.20;99.90;;;;;;6703793;88;20220;-77
2024/02/28 08:05:27;;;;;;;;;;;4.30;99.90;;;;;;6742801;88;20136;-80
2024/02/28 08:15:28;;;;;;;;;;;4.30;99.90;;;;;;6756913;88;20116;-80
2024/02/28 08:25:28;;;;;;;;;;;4.40;99.90;;;;;;6754959;88;20081;-79
2024/02/28 08:35:29;;;;;;;;;;;4.50;99.90;;;;;;6760208;88;20184;-80
2024/02/28 08:45:29;;;;;;;;;;;4.60;99.90;;;;;;6751155;88;20062;-80
2024/02/28 08:55:30;;;;;;;;;;;4.70;99.90;;;;;;6750686;88;20066;-80
2024/02/28 09:05:31;;;;;;;;;;;5.80;99.90;;;;;;6753064;88;20058;-79
2024/02/28 09:15:31;;;;;;;;;;;6.20;99.90;;;;;;6748768;88;20083;-80
2024/02/28 09:25:32;;;;;;;;;;;6.10;99.90;;;;;;6749549;88;20047;-80
2024/02/28 09:35:33;;;;;;;;;;;7.10;99.90;;;;;;6750651;88;20062;-80
2024/02/28 09:45:34;;;;;;;;;;;6.60;99.90;;;;;;6738119;88;20059;-80
2024/02/28 09:55:35;;;;;;;;;;;7.00;99.90;;;;;;6753092;88;20065;-80
2024/02/28 10:05:38;;;;;;;;;;;7.10;99.90;;;;;;6743433;88;20051;-80
2024/02/28 10:15:38;;;;;;;;;;;8.60;99.90;;;;;;6751841;88;20035;-80
2024/02/28 10:25:46;;;;;;;;;;;9.20;99.90;;;;;;6750411;88;20068;-79
2024/02/28 10:35:51;;;;;;;;;;;8.30;99.90;;;;;;6738421;88;20419;-80
2024/02/28 10:45:52;;;;;;;;;;;9.00;99.90;;;;;;6766416;88;20091;-80
2024/02/28 10:55:53;;;;;;;;;;;9.50;99.90;;;;;;6771749;87;20083;-80
2024/02/28 11:05:54;;;;;;;;;;;9.60;99.90;;;;;;6772071;88;20087;-80
2024/02/28 11:15:57;;;;;;;;;;;9.40;99.90;;;;;;6757589;88;20062;-79
2024/02/28 11:25:57;;;;;;;;;;;10.50;99.90;;;;;;6767685;88;20104;-80
2024/02/28 11:35:58;;;;;;;;;;;11.30;99.90;;;;;;6761206;88;20534;-80
2024/02/28 11:45:59;;;;;;;;;;;11.90;99.90;;;;;;6754717;88;20126;-80
2024/02/28 11:56:00;;;;;;;;;;;12.50;99.90;;;;;;6757537;88;20083;-81
2024/02/28 12:06:00;;;;;;;;;;;14.10;99.90;;;;;;6755049;88;20097;-80
2024/02/28 12:16:01;;;;;;;;;;;14.50;99.90;;;;;;6753306;88;20578;-79
2024/02/28 12:26:01;;;;;;;;;;;14.30;99.90;;;;;;6753051;88;20053;-80
2024/02/28 12:36:03;;;;;;;;;;;15.30;99.90;;;;;;6751100;88;20091;-80
2024/02/28 12:46:04;;;;;;;;;;;15.10;99.90;;;;;;6755279;88;20077;-80
2024/02/28 12:56:04;;;;;;;;;;;14.80;99.90;;;;;;6756952;88;20200;-80
2024/02/28 13:06:05;;;;;;;;;;;16.60;98.90;;;;;;6754588;88;20087;-80
2024/02/28 13:16:05;;;;;;;;;;;14.80;99.90;;;;;;6753623;88;20071;-81
2024/02/28 13:26:06;;;;;;;;;;;16.90;98.40;;;;;;6752578;88;20111;-81
2024/02/28 13:36:07;;;;;;;;;;;18.10;96.50;;;;;;6747772;88;20081;-80
2024/02/28 13:46:07;;;;;;;;;;;18.20;96.70;;;;;;6753576;88;20886;-80
2024/02/28 13:56:08;;;;;;;;;;;15.60;97.30;;;;;;6750445;88;20071;-80
2024/02/28 14:16:12;;;;;;;;;;;14.20;98.70;;;;;;6760779;88;20109;-78
2024/02/28 14:26:12;;;;;;;;;;;13.10;99.90;;;;;;6751648;88;20191;-80
2024/02/28 14:36:14;;;;;;;;;;;14.00;99.90;;;;;;6751342;88;20045;-79
2024/02/28 14:46:17;;;;;;;;;;;13.10;99.90;;;;;;6751595;88;20067;-78
2024/02/28 14:56:19;;;;;;;;;;;13.30;99.90;;;;;;6752020;88;20125;-80
2024/02/28 15:06:20;;;;;;;;;;;12.80;99.90;;;;;;6751739;88;20163;-78
2024/02/28 15:16:20;;;;;;;;;;;12.90;99.90;;;;;;6750724;88;20061;-80
2024/02/28 15:26:20;;;;;;;;;;;12.00;99.90;;;;;;6750351;88;20525;-79
2024/02/28 15:36:21;;;;;;;;;;;11.70;99.90;;;;;;6750192;88;20065;-79
2024/02/28 15:46:21;;;;;;;;;;;12.30;99.90;;;;;;6751026;88;20081;-80
2024/02/28 15:56:22;;;;;;;;;;;12.10;99.90;;;;;;6749405;88;20107;-79
2024/02/28 16:06:24;;;;;;;;;;;11.70;99.90;;;;;;6745733;88;20081;-79
2024/02/28 16:16:24;;;;;;;;;;;11.30;99.90;;;;;;6746872;88;20517;-80
2024/02/28 16:26:25;;;;;;;;;;;11.10;99.90;;;;;;6746127;88;20152;-80
2024/02/28 16:36:25;;;;;;;;;;;10.60;99.90;;;;;;6745819;88;20232;-80
2024/02/28 16:46:26;;;;;;;;;;;10.40;99.90;;;;;;6745792;88;20077;-81
2024/02/28 16:56:26;;;;;;;;;;;10.10;99.90;;;;;;6739011;88;20041;-81
2024/02/28 17:06:26;;;;;;;;;;;10.00;99.90;;;;;;6733543;88;20058;-79
2024/02/28 17:16:27;;;;;;;;;;;9.80;99.90;;;;;;6727418;88;20092;-79
2024/02/28 17:26:27;;;;;;;;;;;9.50;99.90;;;;;;6731585;88;20064;-79
2024/02/28 17:36:28;;;;;;;;;;;9.40;99.90;;;;;;6734664;88;20098;-77
2024/02/28 17:46:28;;;;;;;;;;;9.20;99.90;;;;;;6733591;88;20042;-78
2024/02/28 17:56:29;;;;;;;;;;;9.10;99.90;;;;;;6731922;88;20071;-77
2024/02/28 18:06:29;;;;;;;;;;;8.90;99.90;;;;;;6737415;88;20057;-78
2024/02/28 18:16:30;;;;;;;;;;;8.90;99.90;;;;;;6734735;88;20041;-78
2024/02/28 18:26:30;;;;;;;;;;;8.70;99.90;;;;;;6734020;88;20066;-78
2024/02/28 18:36:31;;;;;;;;;;;8.60;99.90;;;;;;6734557;88;20412;-78
2024/02/28 18:46:31;;;;;;;;;;;8.40;99.90;;;;;;6734422;88;20079;-76
2024/02/28 18:56:32;;;;;;;;;;;8.30;99.90;;;;;;6730391;88;20089;-79
2024/02/28 19:06:32;;;;;;;;;;;8.30;99.90;;;;;;6733192;88;20195;-79
2024/02/28 19:16:33;;;;;;;;;;;8.10;99.90;;;;;;6741464;88;20102;-77
2024/02/28 19:26:33;;;;;;;;;;;8.20;99.90;;;;;;6738571;88;20087;-80
2024/02/28 19:36:34;;;;;;;;;;;8.20;99.90;;;;;;6738680;88;20704;-78
2024/02/28 19:46:34;;;;;;;;;;;8.10;99.90;;;;;;6739756;88;20544;-79
2024/02/28 19:56:35;;;;;;;;;;;7.90;99.90;;;;;;6735923;88;20062;-79
2024/02/28 20:06:41;;;;;;;;;;;7.80;99.90;;;;;;6731045;88;20728;-78
2024/02/28 20:16:43;;;;;;;;;;;7.60;99.90;;;;;;6737611;77;20454;-82
2024/02/28 20:26:43;;;;;;;;;;;7.50;99.90;;;;;;6728556;88;20489;-82
2024/02/28 20:36:44;;;;;;;;;;;7.50;99.90;;;;;;6730382;88;20059;-81
2024/02/28 20:46:44;;;;;;;;;;;7.40;99.90;;;;;;6732163;88;20080;-80
2024/02/28 20:56:45;;;;;;;;;;;7.20;99.90;;;;;;6733752;88;20580;-81
2024/02/28 21:06:46;;;;;;;;;;;7.00;99.90;;;;;;6752185;88;20055;-80
2024/02/28 21:16:46;;;;;;;;;;;6.90;99.90;;;;;;6758067;88;20095;-80
2024/02/28 21:26:47;;;;;;;;;;;6.70;99.90;;;;;;6748300;88;20056;-80
2024/02/28 21:36:47;;;;;;;;;;;6.70;99.90;;;;;;6748916;88;20327;-79
2024/02/28 21:46:48;;;;;;;;;;;6.60;99.90;;;;;;6754673;88;20072;-81
2024/02/28 21:56:49;;;;;;;;;;;6.50;99.90;;;;;;6754081;88;20070;-79
2024/02/28 22:06:49;;;;;;;;;;;6.40;99.90;;;;;;6751226;88;20082;-80
2024/02/28 22:16:50;;;;;;;;;;;6.40;99.90;;;;;;6752528;88;20100;-79
2024/02/28 22:26:50;;;;;;;;;;;6.30;99.90;;;;;;6755059;88;20067;-81
2024/02/28 22:36:52;;;;;;;;;;;6.20;99.90;;;;;;6755488;88;20063;-80
2024/02/28 22:46:52;;;;;;;;;;;6.10;99.90;;;;;;6756930;88;20066;-82
2024/02/28 22:56:53;;;;;;;;;;;6.00;99.90;;;;;;6758385;88;20053;-81
2024/02/28 23:06:55;;;;;;;;;;;6.00;99.90;;;;;;6755402;88;20057;-82
2024/02/28 23:16:55;;;;;;;;;;;5.90;99.90;;;;;;6752080;88;20107;-79
2024/02/28 23:26:56;;;;;;;;;;;5.70;99.90;;;;;;6756135;88;20084;-81
2024/02/28 23:36:56;;;;;;;;;;;5.70;99.90;;;;;;6751806;88;20082;-81
2024/02/28 23:46:57;;;;;;;;;;;5.60;99.90;;;;;;6750059;88;20228;-79
2024/02/28 23:56:57;;;;;;;;;;;5.60;99.90;;;;;;6748361;88;20045;-80
